sensor_id;sensor_type;location;lat;lon;timestamp;pressure;altitude;pressure_sealevel;temperature;humidity
77410;BME280;66481;51.332;22.804;2023-09-08T00:00:13;100527.38;;;13.92;100.00
77410;BME280;66481;51.332;22.804;2023-09-08T00:04:34;100531.75;;;13.93;100.00
77410;BME280;66481;51.332;22.804;2023-09-08T00:08:34;100524.72;;;13.92;100.00
77410;BME280;66481;51.332;22.804;2023-09-08T00:12:35;100527.47;;;13.79;100.00
77410;BME280;66481;51.332;22.804;2023-09-08T00:16:36;100530.22;;;13.78;100.00
77410;BME280;66481;51.332;22.804;2023-09-08T00:20:38;100537.63;;;13.61;100.00
77410;BME280;66481;51.332;22.804;2023-09-08T00:24:38;100535.97;;;13.47;100.00
77410;BME280;66481;51.332;22.804;2023-09-08T00:28:39;100539.72;;;13.45;100.00
77410;BME280;66481;51.332;22.804;2023-09-08T00:32:40;100542.28;;;13.33;100.00
77410;BME280;66481;51.332;22.804;2023-09-08T00:36:41;100538.47;;;13.25;100.00
77410;BME280;66481;51.332;22.804;2023-09-08T00:40:42;100528.91;;;13.22;100.00
77410;BME280;66481;51.332;22.804;2023-09-08T00:44:43;100547.59;;;13.33;100.00
77410;BME280;66481;51.332;22.804;2023-09-08T00:48:44;100537.78;;;13.47;100.00
77410;BME280;66481;51.332;22.804;2023-09-08T00:52:45;100531.75;;;13.45;100.00
77410;BME280;66481;51.332;22.804;2023-09-08T00:56:48;100530.56;;;13.49;100.00
77410;BME280;66481;51.332;22.804;2023-09-08T01:00:50;100527.34;;;13.57;100.00
77410;BME280;66481;51.332;22.804;2023-09-08T01:04:51;100530.63;;;13.60;100.00
77410;BME280;66481;51.332;22.804;2023-09-08T01:08:52;100519.69;;;13.76;100.00
77410;BME280;66481;51.332;22.804;2023-09-08T01:12:53;100525.75;;;13.78;100.00
77410;BME280;66481;51.332;22.804;2023-09-08T01:16:53;100526.56;;;13.67;100.00
77410;BME280;66481;51.332;22.804;2023-09-08T01:21:03;100519.81;;;13.75;100.00
77410;BME280;66481;51.332;22.804;2023-09-08T01:29:13;100516.56;;;13.58;100.00
77410;BME280;66481;51.332;22.804;2023-09-08T01:33:17;100513.47;;;13.64;100.00
77410;BME280;66481;51.332;22.804;2023-09-08T01:37:22;100520.91;;;13.48;100.00
77410;BME280;66481;51.332;22.804;2023-09-08T01:41:23;100517.94;;;13.40;100.00
77410;BME280;66481;51.332;22.804;2023-09-08T01:45:24;100519.34;;;13.32;100.00
77410;BME280;66481;51.332;22.804;2023-09-08T01:49:25;100515.81;;;13.32;100.00
77410;BME280;66481;51.332;22.804;2023-09-08T01:53:26;100502.25;;;13.11;100.00
77410;BME280;66481;51.332;22.804;2023-09-08T01:57:27;100506.31;;;13.04;100.00
77410;BME280;66481;51.332;22.804;2023-09-08T02:01:28;100505.13;;;13.08;100.00
77410;BME280;66481;51.332;22.804;2023-09-08T02:05:29;100499.59;;;13.11;100.00
77410;BME280;66481;51.332;22.804;2023-09-08T02:09:37;100495.34;;;13.08;100.00
77410;BME280;66481;51.332;22.804;2023-09-08T02:13:40;100505.03;;;12.96;100.00
77410;BME280;66481;51.332;22.804;2023-09-08T02:17:42;100499.72;;;12.84;100.00
77410;BME280;66481;51.332;22.804;2023-09-08T02:21:43;100503.66;;;13.04;100.00
77410;BME280;66481;51.332;22.804;2023-09-08T02:25:44;100502.81;;;12.90;100.00
77410;BME280;66481;51.332;22.804;2023-09-08T02:29:45;100498.56;;;12.88;100.00
77410;BME280;66481;51.332;22.804;2023-09-08T02:33:45;100481.81;;;12.74;100.00
77410;BME280;66481;51.332;22.804;2023-09-08T02:37:46;100489.56;;;12.65;100.00
77410;BME280;66481;51.332;22.804;2023-09-08T02:41:47;100490.31;;;12.67;100.00
77410;BME280;66481;51.332;22.804;2023-09-08T02:45:48;100487.03;;;12.63;100.00
77410;BME280;66481;51.332;22.804;2023-09-08T02:49:49;100480.75;;;12.64;100.00
77410;BME280;66481;51.332;22.804;2023-09-08T02:53:50;100482.44;;;12.52;100.00
77410;BME280;66481;51.332;22.804;2023-09-08T02:57:51;100481.16;;;12.19;100.00
77410;BME280;66481;51.332;22.804;2023-09-08T03:01:52;100473.97;;;12.34;100.00
77410;BME280;66481;51.332;22.804;2023-09-08T03:05:54;100478.97;;;12.39;100.00
77410;BME280;66481;51.332;22.804;2023-09-08T03:09:57;100473.22;;;12.32;100.00
77410;BME280;66481;51.332;22.804;2023-09-08T03:13:58;100468.03;;;12.31;100.00
77410;BME280;66481;51.332;22.804;2023-09-08T03:17:59;100471.50;;;12.31;100.00
77410;BME280;66481;51.332;22.804;2023-09-08T03:22:00;100473.75;;;12.12;100.00
77410;BME280;66481;51.332;22.804;2023-09-08T03:26:01;100476.88;;;11.91;100.00
77410;BME280;66481;51.332;22.804;2023-09-08T03:30:02;100471.94;;;11.85;100.00
77410;BME280;66481;51.332;22.804;2023-09-08T03:34:05;100480.38;;;11.92;100.00
77410;BME280;66481;51.332;22.804;2023-09-08T03:38:06;100482.00;;;11.94;100.00
77410;BME280;66481;51.332;22.804;2023-09-08T03:42:07;100482.78;;;11.82;100.00
77410;BME280;66481;51.332;22.804;2023-09-08T03:46:08;100481.91;;;11.81;100.00
77410;BME280;66481;51.332;22.804;2023-09-08T03:50:09;100475.06;;;11.92;100.00
77410;BME280;66481;51.332;22.804;2023-09-08T03:54:11;100479.34;;;11.94;100.00
77410;BME280;66481;51.332;22.804;2023-09-08T03:58:12;100484.13;;;12.02;100.00
77410;BME280;66481;51.332;22.804;2023-09-08T04:02:13;100470.00;;;12.01;100.00
77410;BME280;66481;51.332;22.804;2023-09-08T04:06:13;100464.81;;;12.13;100.00
77410;BME280;66481;51.332;22.804;2023-09-08T04:10:15;100474.91;;;12.20;100.00
77410;BME280;66481;51.332;22.804;2023-09-08T04:14:15;100459.63;;;12.37;100.00
77410;BME280;66481;51.332;22.804;2023-09-08T04:18:16;100453.56;;;12.60;100.00
77410;BME280;66481;51.332;22.804;2023-09-08T04:22:17;100448.09;;;12.88;100.00
77410;BME280;66481;51.332;22.804;2023-09-08T04:26:18;100447.38;;;13.71;100.00
77410;BME280;66481;51.332;22.804;2023-09-08T04:30:19;100436.19;;;14.59;100.00
77410;BME280;66481;51.332;22.804;2023-09-08T04:34:20;100434.63;;;15.34;95.52
77410;BME280;66481;51.332;22.804;2023-09-08T04:38:21;100444.13;;;15.92;91.19
77410;BME280;66481;51.332;22.804;2023-09-08T04:42:22;100435.19;;;16.54;90.48
77410;BME280;66481;51.332;22.804;2023-09-08T04:46:24;100426.78;;;17.00;85.54
77410;BME280;66481;51.332;22.804;2023-09-08T04:50:25;100438.81;;;17.35;84.44
77410;BME280;66481;51.332;22.804;2023-09-08T04:54:26;100423.84;;;18.57;80.05
77410;BME280;66481;51.332;22.804;2023-09-08T04:58:28;100428.72;;;18.72;78.20
77410;BME280;66481;51.332;22.804;2023-09-08T05:02:29;100423.69;;;19.24;76.97
77410;BME280;66481;51.332;22.804;2023-09-08T05:06:30;100418.06;;;19.35;74.41
77410;BME280;66481;51.332;22.804;2023-09-08T05:10:31;100412.00;;;19.69;73.62
77410;BME280;66481;51.332;22.804;2023-09-08T05:14:32;100412.38;;;20.71;71.51
77410;BME280;66481;51.332;22.804;2023-09-08T05:18:33;100410.75;;;20.26;70.20
77410;BME280;66481;51.332;22.804;2023-09-08T05:22:34;100413.72;;;20.75;68.04
77410;BME280;66481;51.332;22.804;2023-09-08T05:26:37;100407.50;;;21.75;68.29
77410;BME280;66481;51.332;22.804;2023-09-08T05:30:38;100404.72;;;22.88;63.86
77410;BME280;66481;51.332;22.804;2023-09-08T05:34:39;100407.41;;;22.49;62.87
77410;BME280;66481;51.332;22.804;2023-09-08T05:38:41;100400.69;;;22.45;62.11
77410;BME280;66481;51.332;22.804;2023-09-08T05:42:42;100397.41;;;23.75;61.07
77410;BME280;66481;51.332;22.804;2023-09-08T05:46:43;100389.44;;;25.22;57.15
77410;BME280;66481;51.332;22.804;2023-09-08T05:50:44;100401.66;;;24.96;57.51
77410;BME280;66481;51.332;22.804;2023-09-08T05:54:46;100396.50;;;25.38;56.20
77410;BME280;66481;51.332;22.804;2023-09-08T05:58:46;100409.16;;;24.50;58.45
77410;BME280;66481;51.332;22.804;2023-09-08T06:02:47;100400.00;;;25.32;55.41
77410;BME280;66481;51.332;22.804;2023-09-08T06:06:49;100404.88;;;24.70;56.09
77410;BME280;66481;51.332;22.804;2023-09-08T06:10:50;100408.53;;;25.14;56.15
77410;BME280;66481;51.332;22.804;2023-09-08T06:14:51;100394.25;;;25.92;54.49
77410;BME280;66481;51.332;22.804;2023-09-08T06:18:53;100387.31;;;26.87;52.76
77410;BME280;66481;51.332;22.804;2023-09-08T06:22:54;100382.00;;;27.20;51.78
77410;BME280;66481;51.332;22.804;2023-09-08T06:26:55;100381.44;;;28.12;49.70
77410;BME280;66481;51.332;22.804;2023-09-08T06:30:57;100382.00;;;29.31;48.03
77410;BME280;66481;51.332;22.804;2023-09-08T06:34:58;100385.69;;;28.66;48.05
77410;BME280;66481;51.332;22.804;2023-09-08T06:38:59;100382.44;;;29.35;47.44
77410;BME280;66481;51.332;22.804;2023-09-08T06:43:00;100379.88;;;28.95;45.89
77410;BME280;66481;51.332;22.804;2023-09-08T06:47:01;100383.56;;;29.77;45.74
77410;BME280;66481;51.332;22.804;2023-09-08T06:51:03;100375.47;;;30.14;44.88
77410;BME280;66481;51.332;22.804;2023-09-08T06:55:04;100381.09;;;30.19;44.63
77410;BME280;66481;51.332;22.804;2023-09-08T06:59:06;100384.56;;;30.27;44.17
77410;BME280;66481;51.332;22.804;2023-09-08T07:03:07;100372.31;;;31.03;42.53
77410;BME280;66481;51.332;22.804;2023-09-08T07:07:09;100380.84;;;30.03;44.94
77410;BME280;66481;51.332;22.804;2023-09-08T07:11:11;100372.53;;;31.44;42.70
77410;BME280;66481;51.332;22.804;2023-09-08T07:15:12;100376.91;;;31.33;43.03
77410;BME280;66481;51.332;22.804;2023-09-08T07:19:12;100379.25;;;31.72;43.05
77410;BME280;66481;51.332;22.804;2023-09-08T07:23:13;100374.81;;;32.65;41.64
77410;BME280;66481;51.332;22.804;2023-09-08T07:27:14;100365.09;;;34.00;38.90
77410;BME280;66481;51.332;22.804;2023-09-08T07:31:15;100366.06;;;33.09;39.98
77410;BME280;66481;51.332;22.804;2023-09-08T07:47:09;100363.97;;;33.96;39.33
77410;BME280;66481;51.332;22.804;2023-09-08T07:51:10;100360.97;;;33.97;39.32
77410;BME280;66481;51.332;22.804;2023-09-08T07:55:11;100365.78;;;33.39;39.79
77410;BME280;66481;51.332;22.804;2023-09-08T07:59:13;100358.38;;;33.90;39.09
77410;BME280;66481;51.332;22.804;2023-09-08T08:03:14;100355.63;;;33.90;38.91
77410;BME280;66481;51.332;22.804;2023-09-08T08:07:15;100353.47;;;33.92;39.77
77410;BME280;66481;51.332;22.804;2023-09-08T08:11:17;100355.22;;;35.42;37.62
77410;BME280;66481;51.332;22.804;2023-09-08T08:15:22;100343.00;;;34.51;37.79
77410;BME280;66481;51.332;22.804;2023-09-08T08:19:26;100350.84;;;33.47;39.09
77410;BME280;66481;51.332;22.804;2023-09-08T08:23:29;100356.22;;;33.42;39.65
77410;BME280;66481;51.332;22.804;2023-09-08T08:27:31;100348.16;;;33.52;38.40
77410;BME280;66481;51.332;22.804;2023-09-08T08:31:32;100340.56;;;33.93;37.92
77410;BME280;66481;51.332;22.804;2023-09-08T08:35:33;100348.09;;;34.64;36.68
77410;BME280;66481;51.332;22.804;2023-09-08T08:39:35;100350.00;;;34.63;37.19
77410;BME280;66481;51.332;22.804;2023-09-08T08:43:36;100348.69;;;35.20;36.69
77410;BME280;66481;51.332;22.804;2023-09-08T08:47:39;100349.34;;;35.28;35.50
77410;BME280;66481;51.332;22.804;2023-09-08T08:51:42;100348.44;;;34.06;35.63
77410;BME280;66481;51.332;22.804;2023-09-08T08:55:45;100344.91;;;33.55;36.61
77410;BME280;66481;51.332;22.804;2023-09-08T08:59:47;100343.09;;;34.17;35.71
77410;BME280;66481;51.332;22.804;2023-09-08T09:03:50;100337.19;;;33.06;36.15
77410;BME280;66481;51.332;22.804;2023-09-08T09:07:52;100332.50;;;34.47;33.50
77410;BME280;66481;51.332;22.804;2023-09-08T09:11:54;100336.06;;;35.57;33.78
77410;BME280;66481;51.332;22.804;2023-09-08T09:15:59;100322.34;;;36.00;32.09
77410;BME280;66481;51.332;22.804;2023-09-08T09:20:17;100325.66;;;36.07;33.59
77410;BME280;66481;51.332;22.804;2023-09-08T09:24:29;100330.03;;;34.07;35.83
77410;BME280;66481;51.332;22.804;2023-09-08T09:28:31;100314.53;;;34.62;34.38
77410;BME280;66481;51.332;22.804;2023-09-08T09:32:34;100317.69;;;33.87;35.14
77410;BME280;66481;51.332;22.804;2023-09-08T09:36:39;100326.47;;;32.47;37.23
77410;BME280;66481;51.332;22.804;2023-09-08T09:40:43;100318.13;;;34.18;36.14
77410;BME280;66481;51.332;22.804;2023-09-08T09:44:47;100307.78;;;34.47;35.81
77410;BME280;66481;51.332;22.804;2023-09-08T09:48:54;100309.44;;;35.68;34.08
77410;BME280;66481;51.332;22.804;2023-09-08T09:52:58;100305.59;;;34.72;34.86
77410;BME280;66481;51.332;22.804;2023-09-08T09:57:01;100301.75;;;34.73;36.30
77410;BME280;66481;51.332;22.804;2023-09-08T10:01:02;100294.03;;;34.25;35.00
77410;BME280;66481;51.332;22.804;2023-09-08T10:05:11;100301.00;;;33.72;36.20
77410;BME280;66481;51.332;22.804;2023-09-08T10:09:15;100304.06;;;33.59;36.47
77410;BME280;66481;51.332;22.804;2023-09-08T10:13:27;100299.84;;;35.33;34.20
77410;BME280;66481;51.332;22.804;2023-09-08T10:17:30;100286.00;;;35.22;33.92
77410;BME280;66481;51.332;22.804;2023-09-08T10:21:32;100282.06;;;34.86;34.01
77410;BME280;66481;51.332;22.804;2023-09-08T10:25:42;100284.91;;;34.42;34.05
77410;BME280;66481;51.332;22.804;2023-09-08T10:29:44;100283.94;;;33.53;35.13
77410;BME280;66481;51.332;22.804;2023-09-08T10:33:45;100298.72;;;31.91;37.36
77410;BME280;66481;51.332;22.804;2023-09-08T10:37:46;100285.97;;;31.73;38.32
77410;BME280;66481;51.332;22.804;2023-09-08T10:41:48;100291.66;;;29.96;41.36
77410;BME280;66481;51.332;22.804;2023-09-08T10:45:50;100283.84;;;29.56;42.02
77410;BME280;66481;51.332;22.804;2023-09-08T10:49:51;100277.97;;;30.52;41.04
77410;BME280;66481;51.332;22.804;2023-09-08T10:53:58;100267.28;;;31.46;40.21
77410;BME280;66481;51.332;22.804;2023-09-08T10:57:59;100264.75;;;31.09;39.29
77410;BME280;66481;51.332;22.804;2023-09-08T11:02:03;100271.25;;;30.36;40.70
77410;BME280;66481;51.332;22.804;2023-09-08T11:06:05;100252.34;;;30.34;40.87
77410;BME280;66481;51.332;22.804;2023-09-08T11:10:07;100259.41;;;30.72;41.62
77410;BME280;66481;51.332;22.804;2023-09-08T11:14:08;100258.88;;;29.78;42.70
77410;BME280;66481;51.332;22.804;2023-09-08T11:18:09;100259.06;;;30.02;43.00
77410;BME280;66481;51.332;22.804;2023-09-08T11:22:10;100245.47;;;29.95;42.75
77410;BME280;66481;51.332;22.804;2023-09-08T11:26:12;100248.28;;;29.88;41.76
77410;BME280;66481;51.332;22.804;2023-09-08T11:30:12;100247.63;;;30.11;43.60
77410;BME280;66481;51.332;22.804;2023-09-08T11:34:16;100249.56;;;30.41;42.53
77410;BME280;66481;51.332;22.804;2023-09-08T11:38:17;100244.56;;;30.68;41.34
77410;BME280;66481;51.332;22.804;2023-09-08T11:42:18;100242.13;;;29.56;42.15
77410;BME280;66481;51.332;22.804;2023-09-08T11:46:21;100241.09;;;29.32;42.70
77410;BME280;66481;51.332;22.804;2023-09-08T11:50:23;100243.53;;;29.84;42.65
77410;BME280;66481;51.332;22.804;2023-09-08T11:54:24;100236.41;;;29.39;42.87
77410;BME280;66481;51.332;22.804;2023-09-08T11:58:25;100228.94;;;29.02;43.31
77410;BME280;66481;51.332;22.804;2023-09-08T12:02:26;100232.03;;;28.81;44.89
77410;BME280;66481;51.332;22.804;2023-09-08T12:06:28;100221.44;;;29.67;43.85
77410;BME280;66481;51.332;22.804;2023-09-08T12:10:29;100215.19;;;29.41;43.82
77410;BME280;66481;51.332;22.804;2023-09-08T12:14:40;100209.44;;;29.49;42.36
77410;BME280;66481;51.332;22.804;2023-09-08T12:18:42;100200.44;;;28.98;44.41
77410;BME280;66481;51.332;22.804;2023-09-08T12:22:50;100197.47;;;28.81;44.83
77410;BME280;66481;51.332;22.804;2023-09-08T12:26:52;100198.50;;;28.80;44.77
77410;BME280;66481;51.332;22.804;2023-09-08T12:30:54;100194.59;;;28.69;44.26
77410;BME280;66481;51.332;22.804;2023-09-08T12:34:55;100193.53;;;28.00;44.50
77410;BME280;66481;51.332;22.804;2023-09-08T12:38:56;100195.06;;;27.63;45.99
77410;BME280;66481;51.332;22.804;2023-09-08T12:42:57;100195.50;;;27.60;46.56
77410;BME280;66481;51.332;22.804;2023-09-08T12:47:00;100194.06;;;27.50;46.35
77410;BME280;66481;51.332;22.804;2023-09-08T12:51:01;100176.44;;;27.66;46.23
77410;BME280;66481;51.332;22.804;2023-09-08T12:55:03;100174.19;;;27.56;46.57
77410;BME280;66481;51.332;22.804;2023-09-08T12:59:05;100172.88;;;27.72;48.16
77410;BME280;66481;51.332;22.804;2023-09-08T13:03:05;100173.59;;;27.21;47.78
77410;BME280;66481;51.332;22.804;2023-09-08T13:07:06;100181.09;;;27.39;47.85
77410;BME280;66481;51.332;22.804;2023-09-08T13:11:07;100177.50;;;27.65;48.17
77410;BME280;66481;51.332;22.804;2023-09-08T13:15:09;100174.41;;;27.21;48.03
77410;BME280;66481;51.332;22.804;2023-09-08T13:19:10;100174.88;;;27.05;49.01
77410;BME280;66481;51.332;22.804;2023-09-08T13:23:12;100159.19;;;26.87;47.65
77410;BME280;66481;51.332;22.804;2023-09-08T13:27:13;100156.66;;;26.59;49.04
77410;BME280;66481;51.332;22.804;2023-09-08T13:31:18;100149.81;;;26.63;49.67
77410;BME280;66481;51.332;22.804;2023-09-08T13:35:19;100157.75;;;26.78;49.28
77410;BME280;66481;51.332;22.804;2023-09-08T13:39:21;100140.56;;;26.51;48.34
77410;BME280;66481;51.332;22.804;2023-09-08T13:43:22;100139.06;;;26.35;49.08
77410;BME280;66481;51.332;22.804;2023-09-08T13:47:23;100138.31;;;26.68;48.96
77410;BME280;66481;51.332;22.804;2023-09-08T13:51:24;100130.75;;;26.43;49.63
77410;BME280;66481;51.332;22.804;2023-09-08T13:55:25;100130.94;;;26.41;49.66
77410;BME280;66481;51.332;22.804;2023-09-08T13:59:27;100131.34;;;26.32;50.32
77410;BME280;66481;51.332;22.804;2023-09-08T14:03:29;100135.28;;;26.16;50.29
77410;BME280;66481;51.332;22.804;2023-09-08T14:07:30;100119.03;;;26.29;50.16
77410;BME280;66481;51.332;22.804;2023-09-08T14:11:32;100124.44;;;26.22;50.66
77410;BME280;66481;51.332;22.804;2023-09-08T14:15:33;100118.22;;;26.29;51.19
77410;BME280;66481;51.332;22.804;2023-09-08T14:19:34;100107.13;;;26.17;49.71
77410;BME280;66481;51.332;22.804;2023-09-08T14:23:34;100105.22;;;25.97;49.47
77410;BME280;66481;51.332;22.804;2023-09-08T14:27:37;100100.22;;;26.01;49.77
77410;BME280;66481;51.332;22.804;2023-09-08T14:31:38;100099.72;;;25.90;50.29
77410;BME280;66481;51.332;22.804;2023-09-08T14:35:43;100090.09;;;25.81;49.42
77410;BME280;66481;51.332;22.804;2023-09-08T14:39:45;100073.56;;;25.69;50.05
77410;BME280;66481;51.332;22.804;2023-09-08T14:43:46;100076.16;;;25.36;50.07
77410;BME280;66481;51.332;22.804;2023-09-08T14:47:47;100079.53;;;25.45;50.21
77410;BME280;66481;51.332;22.804;2023-09-08T14:51:48;100073.34;;;25.16;51.88
77410;BME280;66481;51.332;22.804;2023-09-08T14:55:50;100079.63;;;25.23;52.64
77410;BME280;66481;51.332;22.804;2023-09-08T14:59:51;100074.66;;;25.27;53.39
77410;BME280;66481;51.332;22.804;2023-09-08T15:03:56;100074.16;;;25.17;53.42
77410;BME280;66481;51.332;22.804;2023-09-08T15:07:58;100071.44;;;25.17;52.32
77410;BME280;66481;51.332;22.804;2023-09-08T15:12:00;100065.38;;;25.08;53.39
77410;BME280;66481;51.332;22.804;2023-09-08T15:16:01;100060.97;;;25.07;51.61
77410;BME280;66481;51.332;22.804;2023-09-08T15:20:03;100058.88;;;25.09;51.33
77410;BME280;66481;51.332;22.804;2023-09-08T15:24:05;100057.91;;;24.82;52.43
77410;BME280;66481;51.332;22.804;2023-09-08T15:28:07;100068.19;;;24.93;53.03
77410;BME280;66481;51.332;22.804;2023-09-08T15:32:09;100049.56;;;24.76;53.56
77410;BME280;66481;51.332;22.804;2023-09-08T15:36:10;100055.44;;;24.58;53.11
77410;BME280;66481;51.332;22.804;2023-09-08T15:40:12;100059.84;;;24.59;53.33
77410;BME280;66481;51.332;22.804;2023-09-08T15:44:15;100056.97;;;24.46;54.28
77410;BME280;66481;51.332;22.804;2023-09-08T15:48:16;100066.97;;;24.24;56.45
77410;BME280;66481;51.332;22.804;2023-09-08T15:52:20;100045.50;;;24.16;55.11
77410;BME280;66481;51.332;22.804;2023-09-08T15:56:22;100053.91;;;24.06;55.00
77410;BME280;66481;51.332;22.804;2023-09-08T16:00:23;100052.00;;;24.00;54.88
77410;BME280;66481;51.332;22.804;2023-09-08T16:04:25;100041.69;;;23.89;55.60
77410;BME280;66481;51.332;22.804;2023-09-08T16:08:27;100046.00;;;23.68;56.04
77410;BME280;66481;51.332;22.804;2023-09-08T16:12:28;100045.00;;;23.54;56.56
77410;BME280;66481;51.332;22.804;2023-09-08T16:16:30;100035.56;;;23.28;57.76
77410;BME280;66481;51.332;22.804;2023-09-08T16:20:31;100038.66;;;23.11;58.46
77410;BME280;66481;51.332;22.804;2023-09-08T16:24:32;100042.53;;;22.93;60.00
77410;BME280;66481;51.332;22.804;2023-09-08T16:28:34;100038.88;;;22.71;60.42
77410;BME280;66481;51.332;22.804;2023-09-08T16:32:36;100036.16;;;22.56;61.86
77410;BME280;66481;51.332;22.804;2023-09-08T16:36:37;100034.03;;;22.51;61.32
77410;BME280;66481;51.332;22.804;2023-09-08T16:40:38;100033.91;;;22.22;62.66
77410;BME280;66481;51.332;22.804;2023-09-08T16:44:41;100042.34;;;21.95;63.65
77410;BME280;66481;51.332;22.804;2023-09-08T16:48:45;100049.16;;;21.60;65.88
77410;BME280;66481;51.332;22.804;2023-09-08T16:52:46;100045.19;;;21.39;66.87
77410;BME280;66481;51.332;22.804;2023-09-08T16:56:48;100045.31;;;21.07;67.70
77410;BME280;66481;51.332;22.804;2023-09-08T17:00:49;100045.88;;;20.85;68.55
77410;BME280;66481;51.332;22.804;2023-09-08T17:04:50;100039.53;;;20.70;69.11
77410;BME280;66481;51.332;22.804;2023-09-08T17:08:51;100041.03;;;20.56;69.54
77410;BME280;66481;51.332;22.804;2023-09-08T17:12:53;100046.25;;;20.58;69.76
77410;BME280;66481;51.332;22.804;2023-09-08T17:16:55;100046.59;;;20.38;70.74
77410;BME280;66481;51.332;22.804;2023-09-08T17:20:56;100046.09;;;20.18;70.58
77410;BME280;66481;51.332;22.804;2023-09-08T17:24:57;100056.13;;;19.83;74.47
77410;BME280;66481;51.332;22.804;2023-09-08T17:28:59;100053.16;;;19.60;74.53
77410;BME280;66481;51.332;22.804;2023-09-08T17:33:00;100055.44;;;19.39;75.73
77410;BME280;66481;51.332;22.804;2023-09-08T17:37:02;100055.88;;;19.17;79.43
77410;BME280;66481;51.332;22.804;2023-09-08T17:41:03;100048.50;;;19.20;80.94
77410;BME280;66481;51.332;22.804;2023-09-08T17:45:05;100050.03;;;18.96;81.85
77410;BME280;66481;51.332;22.804;2023-09-08T17:49:07;100062.47;;;18.79;83.30
77410;BME280;66481;51.332;22.804;2023-09-08T17:53:09;100054.94;;;18.56;84.21
77410;BME280;66481;51.332;22.804;2023-09-08T17:57:10;100059.22;;;18.41;86.33
77410;BME280;66481;51.332;22.804;2023-09-08T18:01:13;100062.97;;;18.30;87.41
77410;BME280;66481;51.332;22.804;2023-09-08T18:05:14;100053.63;;;18.16;87.94
77410;BME280;66481;51.332;22.804;2023-09-08T18:09:16;100052.34;;;18.02;88.82
77410;BME280;66481;51.332;22.804;2023-09-08T18:13:18;100052.25;;;17.94;88.11
77410;BME280;66481;51.332;22.804;2023-09-08T18:17:20;100052.44;;;17.93;87.37
77410;BME280;66481;51.332;22.804;2023-09-08T18:21:23;100047.56;;;17.78;87.39
77410;BME280;66481;51.332;22.804;2023-09-08T18:25:25;100050.06;;;17.62;86.32
77410;BME280;66481;51.332;22.804;2023-09-08T18:29:26;100045.53;;;17.44;85.14
77410;BME280;66481;51.332;22.804;2023-09-08T18:33:29;100050.09;;;17.34;86.85
77410;BME280;66481;51.332;22.804;2023-09-08T18:37:30;100048.47;;;17.23;88.71
77410;BME280;66481;51.332;22.804;2023-09-08T18:41:31;100061.06;;;17.03;89.31
77410;BME280;66481;51.332;22.804;2023-09-08T18:45:33;100055.78;;;16.84;91.25
77410;BME280;66481;51.332;22.804;2023-09-08T18:49:35;100050.16;;;16.67;92.92
77410;BME280;66481;51.332;22.804;2023-09-08T18:53:37;100047.34;;;16.59;94.45
77410;BME280;66481;51.332;22.804;2023-09-08T18:57:39;100054.25;;;16.62;93.84
77410;BME280;66481;51.332;22.804;2023-09-08T19:01:40;100040.78;;;16.44;94.18
77410;BME280;66481;51.332;22.804;2023-09-08T19:05:42;100036.56;;;16.51;92.55
77410;BME280;66481;51.332;22.804;2023-09-08T19:09:44;100033.63;;;16.44;92.40
77410;BME280;66481;51.332;22.804;2023-09-08T19:13:46;100040.50;;;16.37;91.94
77410;BME280;66481;51.332;22.804;2023-09-08T19:17:47;100030.53;;;16.29;91.18
77410;BME280;66481;51.332;22.804;2023-09-08T19:21:49;100037.00;;;16.27;91.32
77410;BME280;66481;51.332;22.804;2023-09-08T19:25:50;100023.66;;;16.17;92.24
77410;BME280;66481;51.332;22.804;2023-09-08T19:29:52;100031.97;;;16.04;93.91
77410;BME280;66481;51.332;22.804;2023-09-08T19:33:54;100033.78;;;16.04;93.86
77410;BME280;66481;51.332;22.804;2023-09-08T19:37:57;100032.66;;;16.06;92.76
77410;BME280;66481;51.332;22.804;2023-09-08T19:41:59;100028.03;;;15.89;92.56
77410;BME280;66481;51.332;22.804;2023-09-08T19:46:03;100028.44;;;15.84;93.53
77410;BME280;66481;51.332;22.804;2023-09-08T19:50:05;100030.94;;;15.76;93.64
77410;BME280;66481;51.332;22.804;2023-09-08T19:54:06;100028.81;;;15.70;93.61
77410;BME280;66481;51.332;22.804;2023-09-08T19:58:09;100027.97;;;15.59;94.20
77410;BME280;66481;51.332;22.804;2023-09-08T20:02:10;100035.09;;;15.49;95.09
77410;BME280;66481;51.332;22.804;2023-09-08T20:06:15;100031.25;;;15.32;95.90
77410;BME280;66481;51.332;22.804;2023-09-08T20:10:17;100031.78;;;15.16;97.20
77410;BME280;66481;51.332;22.804;2023-09-08T20:14:18;100036.88;;;14.98;98.64
77410;BME280;66481;51.332;22.804;2023-09-08T20:18:21;100033.06;;;14.91;99.59
77410;BME280;66481;51.332;22.804;2023-09-08T20:22:23;100027.47;;;14.94;99.41
77410;BME280;66481;51.332;22.804;2023-09-08T20:26:25;100028.50;;;15.03;98.46
77410;BME280;66481;51.332;22.804;2023-09-08T20:30:25;100016.41;;;14.99;98.38
77410;BME280;66481;51.332;22.804;2023-09-08T20:34:27;100024.59;;;15.07;98.09
77410;BME280;66481;51.332;22.804;2023-09-08T20:38:29;100014.16;;;14.94;97.99
77410;BME280;66481;51.332;22.804;2023-09-08T20:42:31;100026.81;;;15.02;98.30
77410;BME280;66481;51.332;22.804;2023-09-08T20:46:33;100024.72;;;15.06;97.83
77410;BME280;66481;51.332;22.804;2023-09-08T20:50:34;100030.19;;;15.04;97.92
77410;BME280;66481;51.332;22.804;2023-09-08T20:54:41;100021.03;;;14.97;97.55
77410;BME280;66481;51.332;22.804;2023-09-08T20:58:46;100028.47;;;14.93;97.61